Time;durP1;ratioP1;P1;durP2;ratioP2;P2;SDS_P1;SDS_P2;PMS_P1;PMS_P2;Temp;Humidity;BMP_temperature;BMP_pressure;BME280_temperature;BME280_humidity;BME280_pressure;Samples;Min_cycle;Max_cycle;Signal;HPM_P1;HPM_P2
2022/01/10 00:00:36;;;;;;;50.50;28.20;;;;;;;;;;6263445;22;20000;-74
2022/01/10 00:03:03;;;;;;;52.75;26.95;;;;;;;;;;6260680;23;19992;-73
2022/01/10 00:05:29;;;;;;;55.92;29.13;;;;;;;;;;6233124;23;19991;-72
2022/01/10 00:07:55;;;;;;;54.13;29.88;;;;;;;;;;6257569;23;19991;-74
2022/01/10 00:10:21;;;;;;;54.10;31.45;;;;;;;;;;6256355;23;19984;-73
2022/01/10 00:12:47;;;;;;;54.20;29.60;;;;;;;;;;6263790;22;20005;-72
2022/01/10 00:15:16;;;;;;;59.95;31.30;;;;;;;;;;6260587;23;20007;-73
2022/01/10 00:17:43;;;;;;;57.63;30.08;;;;;;;;;;6230720;23;20004;-73
2022/01/10 00:20:13;;;;;;;55.90;30.67;;;;;;;;;;6254832;23;20033;-73
2022/01/10 00:22:40;;;;;;;60.25;32.80;;;;;;;;;;6232841;23;20052;-73
2022/01/10 00:25:07;;;;;;;57.03;31.58;;;;;;;;;;6260518;23;20079;-73
2022/01/10 00:27:33;;;;;;;64.97;33.83;;;;;;;;;;6259338;23;20012;-73
2022/01/10 00:29:59;;;;;;;66.43;34.72;;;;;;;;;;6257204;23;20056;-73
2022/01/10 00:32:25;;;;;;;66.60;34.15;;;;;;;;;;6256582;23;20004;-73
2022/01/10 00:34:51;;;;;;;66.35;33.28;;;;;;;;;;6261006;23;20004;-73
2022/01/10 00:37:42;;;;;;;77.90;38.20;;;;;;;;;;6258856;23;19996;-73
2022/01/10 00:40:18;;;;;;;73.35;35.58;;;;;;;;;;6263249;23;20011;-72
2022/01/10 00:42:52;;;;;;;76.20;36.33;;;;;;;;;;6261090;23;20325;-73
2022/01/10 00:45:23;;;;;;;77.70;37.00;;;;;;;;;;6259156;23;20528;-72
2022/01/10 00:47:49;;;;;;;82.03;39.40;;;;;;;;;;6260764;23;20014;-73
2022/01/10 00:50:16;;;;;;;71.78;33.75;;;;;;;;;;6259364;22;20377;-74
2022/01/10 00:52:44;;;;;;;69.20;33.63;;;;;;;;;;6229646;23;20014;-73
2022/01/10 00:55:10;;;;;;;72.70;36.78;;;;;;;;;;6232816;23;20008;-73
2022/01/10 00:57:36;;;;;;;73.85;36.38;;;;;;;;;;6260785;22;20023;-74
2022/01/10 01:00:04;;;;;;;68.50;34.97;;;;;;;;;;6258738;22;19984;-71
2022/01/10 01:02:32;;;;;;;71.70;36.28;;;;;;;;;;6260309;23;20019;-73
2022/01/10 01:05:04;;;;;;;62.38;32.20;;;;;;;;;;6257110;23;20007;-73
2022/01/10 01:07:30;;;;;;;71.63;35.30;;;;;;;;;;6256886;22;20008;-74
2022/01/10 01:10:48;;;;;;;78.00;36.28;;;;;;;;;;6263668;22;20445;-73
2022/01/10 01:13:21;;;;;;;70.68;34.88;;;;;;;;;;6266199;23;20047;-72
2022/01/10 01:15:47;;;;;;;74.57;36.33;;;;;;;;;;6257624;22;20048;-72
2022/01/10 01:18:21;;;;;;;81.25;38.00;;;;;;;;;;6254113;22;20434;-74
2022/01/10 01:26:19;;;;;;;76.28;34.95;;;;;;;;;;6259152;23;20015;-73
2022/01/10 01:28:45;;;;;;;78.13;36.85;;;;;;;;;;6236199;23;20004;-71
2022/01/10 01:31:11;;;;;;;79.60;38.47;;;;;;;;;;6260272;23;20448;-72
2022/01/10 01:33:39;;;;;;;86.57;39.17;;;;;;;;;;6258801;23;20066;-73
2022/01/10 01:36:05;;;;;;;72.07;37.28;;;;;;;;;;6260413;23;20007;-72
2022/01/10 01:38:31;;;;;;;79.25;38.40;;;;;;;;;;6229501;23;20016;-73
2022/01/10 01:41:19;;;;;;;76.45;37.38;;;;;;;;;;6260353;23;20000;-74
2022/01/10 01:43:46;;;;;;;80.75;37.83;;;;;;;;;;6231925;23;19995;-74
2022/01/10 01:46:12;;;;;;;75.13;37.05;;;;;;;;;;6257904;22;19988;-74
2022/01/10 01:48:38;;;;;;;77.93;36.75;;;;;;;;;;6262577;22;20027;-73
2022/01/10 01:51:04;;;;;;;70.47;36.28;;;;;;;;;;6264992;23;20000;-73
2022/01/10 01:53:36;;;;;;;78.22;38.80;;;;;;;;;;6262793;23;20007;-76
2022/01/10 01:56:04;;;;;;;69.95;37.03;;;;;;;;;;6240404;23;20012;-73
2022/01/10 01:58:32;;;;;;;77.55;35.92;;;;;;;;;;6262555;23;20019;-73
2022/01/10 02:00:58;;;;;;;77.80;35.25;;;;;;;;;;6261699;22;20019;-73
2022/01/10 02:03:27;;;;;;;67.97;33.42;;;;;;;;;;6261239;23;20004;-74
2022/01/10 02:05:53;;;;;;;63.67;33.33;;;;;;;;;;6253635;23;20012;-72
2022/01/10 02:08:19;;;;;;;66.70;30.88;;;;;;;;;;6228011;23;20004;-73
2022/01/10 02:10:45;;;;;;;63.83;29.60;;;;;;;;;;6257285;23;20430;-73
2022/01/10 02:13:11;;;;;;;56.40;29.65;;;;;;;;;;6255332;23;20074;-72
2022/01/10 02:18:14;;;;;;;59.65;30.85;;;;;;;;;;6263920;23;20074;-73
2022/01/10 02:20:46;;;;;;;56.90;29.92;;;;;;;;;;6255318;23;20014;-72
2022/01/10 02:23:13;;;;;;;58.15;29.90;;;;;;;;;;6256258;23;20000;-73
2022/01/10 02:25:39;;;;;;;65.70;33.05;;;;;;;;;;6249935;23;20075;-72
2022/01/10 02:28:05;;;;;;;61.88;29.98;;;;;;;;;;6252943;23;20008;-73
2022/01/10 02:30:34;;;;;;;61.10;29.70;;;;;;;;;;6252878;23;20000;-73
2022/01/10 02:33:03;;;;;;;54.55;29.17;;;;;;;;;;6254689;23;20034;-72
2022/01/10 02:35:55;;;;;;;49.25;25.30;;;;;;;;;;6263298;23;19988;-71
2022/01/10 02:38:21;;;;;;;52.50;25.58;;;;;;;;;;6258991;23;20042;-73
2022/01/10 02:40:52;;;;;;;42.95;22.50;;;;;;;;;;6259333;23;20045;-73
2022/01/10 02:43:18;;;;;;;43.55;23.27;;;;;;;;;;6260838;23;19991;-76
2022/01/10 02:45:45;;;;;;;43.78;24.55;;;;;;;;;;6259594;23;20000;-73
2022/01/10 02:48:11;;;;;;;46.80;24.70;;;;;;;;;;6257926;23;20015;-73
2022/01/10 02:50:37;;;;;;;54.22;27.73;;;;;;;;;;6262592;23;20002;-73
2022/01/10 02:53:03;;;;;;;43.22;21.77;;;;;;;;;;6263063;23;20015;-72
2022/01/10 02:55:29;;;;;;;44.17;24.20;;;;;;;;;;6264261;22;20058;-72
2022/01/10 02:57:55;;;;;;;44.53;24.67;;;;;;;;;;6267725;22;20074;-73
2022/01/10 03:00:25;;;;;;;43.03;22.55;;;;;;;;;;6256126;22;20004;-73
2022/01/10 03:02:54;;;;;;;40.15;22.02;;;;;;;;;;6258562;23;20051;-72
2022/01/10 03:05:24;;;;;;;47.50;24.55;;;;;;;;;;6263236;22;20083;-71
2022/01/10 03:07:51;;;;;;;44.15;24.38;;;;;;;;;;6262369;22;20006;-74
2022/01/10 03:10:20;;;;;;;46.85;24.98;;;;;;;;;;6262657;23;20004;-74
2022/01/10 03:12:46;;;;;;;49.03;24.23;;;;;;;;;;6266660;22;20418;-75
2022/01/10 03:15:12;;;;;;;42.42;22.83;;;;;;;;;;6259263;22;20028;-72
2022/01/10 03:17:38;;;;;;;46.97;24.05;;;;;;;;;;6259721;23;20001;-73
2022/01/10 03:20:06;;;;;;;44.28;21.70;;;;;;;;;;6260327;23;19996;-75
2022/01/10 03:22:32;;;;;;;47.90;24.20;;;;;;;;;;6236773;22;20012;-74
2022/01/10 03:24:58;;;;;;;42.78;23.13;;;;;;;;;;6259893;22;20003;-72
2022/01/10 03:27:24;;;;;;;41.30;23.08;;;;;;;;;;6263882;23;20004;-76
2022/01/10 03:29:51;;;;;;;37.75;21.45;;;;;;;;;;6233829;23;20075;-73
2022/01/10 03:32:17;;;;;;;43.63;22.90;;;;;;;;;;6257517;22;19989;-74
2022/01/10 03:34:43;;;;;;;39.60;22.13;;;;;;;;;;6230943;22;20059;-72
2022/01/10 03:37:11;;;;;;;39.40;22.13;;;;;;;;;;6236998;22;20008;-74
2022/01/10 03:39:37;;;;;;;41.17;24.02;;;;;;;;;;6259253;23;20019;-75
2022/01/10 03:42:06;;;;;;;41.60;23.73;;;;;;;;;;6259482;23;20004;-73
2022/01/10 03:44:32;;;;;;;37.88;22.63;;;;;;;;;;6231757;22;20099;-73
2022/01/10 03:46:59;;;;;;;41.00;22.48;;;;;;;;;;6252701;23;20007;-72
2022/01/10 03:49:25;;;;;;;41.92;22.90;;;;;;;;;;6247487;23;20054;-73
2022/01/10 03:51:52;;;;;;;38.83;21.48;;;;;;;;;;6222720;23;20087;-75
2022/01/10 03:54:22;;;;;;;42.03;23.42;;;;;;;;;;6248859;23;20004;-73
2022/01/10 03:56:48;;;;;;;40.20;22.85;;;;;;;;;;6250536;23;20000;-73
2022/01/10 03:59:14;;;;;;;42.72;24.83;;;;;;;;;;6259305;22;20025;-72
2022/01/10 04:01:40;;;;;;;44.53;24.52;;;;;;;;;;6279747;22;20015;-74
2022/01/10 04:04:07;;;;;;;43.40;25.30;;;;;;;;;;6281970;22;19996;-74
2022/01/10 04:06:34;;;;;;;42.85;24.40;;;;;;;;;;6257554;22;20035;-74
2022/01/10 04:09:00;;;;;;;50.75;26.58;;;;;;;;;;6259264;22;20004;-74
2022/01/10 04:11:44;;;;;;;45.22;24.63;;;;;;;;;;6253765;22;20012;-73
2022/01/10 04:14:13;;;;;;;58.53;29.15;;;;;;;;;;6264146;22;20389;-73
2022/01/10 04:16:39;;;;;;;51.45;27.17;;;;;;;;;;6281298;22;20008;-74
2022/01/10 04:19:06;;;;;;;52.38;27.33;;;;;;;;;;6286443;22;20006;-75
2022/01/10 04:21:32;;;;;;;62.08;30.10;;;;;;;;;;6288308;22;19999;-76
2022/01/10 04:24:00;;;;;;;51.13;28.15;;;;;;;;;;6287959;22;20000;-73
2022/01/10 04:26:26;;;;;;;54.97;28.60;;;;;;;;;;6293816;22;20078;-74
2022/01/10 04:28:55;;;;;;;54.28;30.48;;;;;;;;;;6288173;22;20022;-72
2022/01/10 04:31:24;;;;;;;47.33;27.35;;;;;;;;;;6289441;22;20022;-72
2022/01/10 04:33:53;;;;;;;53.60;30.25;;;;;;;;;;6291555;22;20011;-73
2022/01/10 04:36:19;;;;;;;48.42;26.27;;;;;;;;;;6286790;22;20086;-75
2022/01/10 04:38:46;;;;;;;50.45;28.00;;;;;;;;;;6289175;22;20428;-74
2022/01/10 04:41:12;;;;;;;49.25;28.08;;;;;;;;;;6281288;22;20018;-74
2022/01/10 04:43:38;;;;;;;48.83;27.17;;;;;;;;;;6284756;22;20008;-75
2022/01/10 04:46:05;;;;;;;47.42;27.42;;;;;;;;;;6285613;22;20057;-72
2022/01/10 04:48:31;;;;;;;47.58;27.30;;;;;;;;;;6281070;22;20065;-74
2022/01/10 04:53:48;;;;;;;34.50;20.90;;;;;;;;;;6295064;22;20476;-73
2022/01/10 04:56:17;;;;;;;35.20;21.45;;;;;;;;;;6280975;22;20272;-72
2022/01/10 04:58:45;;;;;;;31.70;20.15;;;;;;;;;;6280985;22;20011;-72
2022/01/10 05:01:11;;;;;;;39.55;23.73;;;;;;;;;;6282712;22;20092;-76
2022/01/10 05:03:38;;;;;;;36.22;23.55;;;;;;;;;;6285034;22;20010;-75
2022/01/10 05:06:11;;;;;;;37.47;23.48;;;;;;;;;;6283956;22;20007;-72
2022/01/10 05:08:37;;;;;;;37.08;22.92;;;;;;;;;;6289357;22;20061;-73
2022/01/10 05:11:10;;;;;;;37.38;24.55;;;;;;;;;;6278550;22;20004;-74
2022/01/10 05:13:40;;;;;;;33.45;21.27;;;;;;;;;;6276846;22;20018;-76
2022/01/10 05:16:06;;;;;;;35.22;22.08;;;;;;;;;;6287840;22;20011;-74
2022/01/10 05:18:33;;;;;;;37.42;22.65;;;;;;;;;;6282489;22;20065;-75
2022/01/10 05:20:59;;;;;;;37.38;22.60;;;;;;;;;;6312578;22;20334;-78
2022/01/10 05:23:28;;;;;;;37.72;22.70;;;;;;;;;;6313196;22;20060;-74
2022/01/10 05:25:58;;;;;;;43.03;25.42;;;;;;;;;;6287255;22;20011;-76
2022/01/10 05:28:30;;;;;;;39.15;24.45;;;;;;;;;;6288434;22;20000;-72
2022/01/10 05:31:00;;;;;;;42.05;26.02;;;;;;;;;;6320640;22;19991;-73
2022/01/10 05:33:28;;;;;;;41.45;25.13;;;;;;;;;;6321307;22;19999;-74
2022/01/10 05:35:54;;;;;;;41.88;26.45;;;;;;;;;;6317935;22;19999;-74
2022/01/10 05:38:20;;;;;;;41.60;25.90;;;;;;;;;;6313838;22;20045;-74
2022/01/10 05:40:46;;;;;;;42.70;26.98;;;;;;;;;;6311310;22;19995;-76
2022/01/10 05:43:12;;;;;;;42.10;25.98;;;;;;;;;;6313324;22;20015;-74
2022/01/10 05:45:38;;;;;;;47.67;30.00;;;;;;;;;;6313747;22;20019;-72
2022/01/10 05:48:11;;;;;;;55.30;32.90;;;;;;;;;;6315072;22;20006;-75
2022/01/10 05:50:42;;;;;;;51.00;30.70;;;;;;;;;;6313309;22;20007;-75
2022/01/10 05:53:10;;;;;;;51.42;29.85;;;;;;;;;;6285456;22;20010;-76
2022/01/10 05:55:37;;;;;;;62.60;34.88;;;;;;;;;;6311855;22;20417;-77
2022/01/10 05:58:03;;;;;;;50.88;29.95;;;;;;;;;;6312955;22;20000;-76
2022/01/10 06:00:29;;;;;;;43.90;26.25;;;;;;;;;;6287666;22;20014;-75
2022/01/10 06:02:56;;;;;;;52.17;31.25;;;;;;;;;;6315841;22;20000;-72
2022/01/10 06:05:24;;;;;;;43.58;27.23;;;;;;;;;;6314529;22;20003;-75
2022/01/10 06:07:50;;;;;;;41.85;26.08;;;;;;;;;;6287631;22;20025;-73
2022/01/10 06:10:16;;;;;;;41.25;24.38;;;;;;;;;;6311413;22;20008;-72
2022/01/10 06:12:42;;;;;;;46.08;28.85;;;;;;;;;;6310258;22;20048;-72
2022/01/10 06:15:08;;;;;;;39.50;25.65;;;;;;;;;;6310651;22;20026;-74
2022/01/10 06:17:34;;;;;;;41.35;24.60;;;;;;;;;;6309912;22;19999;-74
2022/01/10 06:20:00;;;;;;;35.83;22.63;;;;;;;;;;6311164;22;20034;-75
2022/01/10 06:22:26;;;;;;;40.53;24.40;;;;;;;;;;6310988;22;20000;-74
2022/01/10 06:24:52;;;;;;;43.13;24.50;;;;;;;;;;6313212;22;20031;-74
2022/01/10 06:27:18;;;;;;;39.80;26.23;;;;;;;;;;6314042;22;19999;-75
2022/01/10 06:29:44;;;;;;;44.50;26.00;;;;;;;;;;6311001;22;20043;-75
2022/01/10 06:32:13;;;;;;;44.80;26.88;;;;;;;;;;6314316;22;20080;-84
2022/01/10 06:34:39;;;;;;;43.88;26.80;;;;;;;;;;6332985;22;20018;-79
2022/01/10 06:37:05;;;;;;;41.83;24.63;;;;;;;;;;6294515;22;20004;-84
2022/01/10 06:39:31;;;;;;;38.42;24.65;;;;;;;;;;6323114;22;19996;-79
2022/01/10 06:41:57;;;;;;;41.03;24.83;;;;;;;;;;6293247;22;20011;-90
2022/01/10 06:44:24;;;;;;;39.42;24.65;;;;;;;;;;6287739;22;20343;-78
2022/01/10 06:46:50;;;;;;;38.70;23.65;;;;;;;;;;6315724;22;20034;-90
2022/01/10 06:49:16;;;;;;;45.08;27.13;;;;;;;;;;6318857;22;20007;-86
2022/01/10 06:51:42;;;;;;;42.60;26.50;;;;;;;;;;6317982;22;19995;-88
2022/01/10 06:54:09;;;;;;;43.97;26.25;;;;;;;;;;6317989;22;20003;-79
2022/01/10 06:56:36;;;;;;;43.78;25.13;;;;;;;;;;6315337;22;19995;-79
2022/01/10 06:59:02;;;;;;;44.15;26.08;;;;;;;;;;6317678;22;19995;-88
2022/01/10 07:01:28;;;;;;;52.38;29.02;;;;;;;;;;6318227;22;19999;-75
2022/01/10 07:03:56;;;;;;;51.55;28.45;;;;;;;;;;6318972;22;20002;-85
2022/01/10 07:06:41;;;;;;;53.90;29.85;;;;;;;;;;6324703;22;20429;-78
2022/01/10 07:09:10;;;;;;;56.13;30.67;;;;;;;;;;6292817;22;20010;-89
2022/01/10 07:11:37;;;;;;;56.22;32.33;;;;;;;;;;6322096;22;20034;-88
2022/01/10 07:14:05;;;;;;;59.55;31.45;;;;;;;;;;6289623;22;20015;-80
2022/01/10 07:16:31;;;;;;;51.92;28.05;;;;;;;;;;6286700;22;20003;-79
2022/01/10 07:18:59;;;;;;;46.75;26.17;;;;;;;;;;6261508;22;20016;-93
2022/01/10 07:21:25;;;;;;;40.17;21.50;;;;;;;;;;6264044;22;20064;-83
2022/01/10 07:23:54;;;;;;;47.90;27.52;;;;;;;;;;6291311;22;20007;-78
2022/01/10 07:26:22;;;;;;;50.75;28.52;;;;;;;;;;6289574;22;20047;-78
2022/01/10 07:28:49;;;;;;;52.03;29.42;;;;;;;;;;6288644;22;20016;-78
2022/01/10 07:31:16;;;;;;;48.85;27.92;;;;;;;;;;6286319;22;19999;-90
2022/01/10 07:33:42;;;;;;;39.65;23.05;;;;;;;;;;6286171;22;19998;-89
2022/01/10 07:36:10;;;;;;;42.97;25.50;;;;;;;;;;6288737;22;20011;-80
2022/01/10 07:38:45;;;;;;;39.92;24.92;;;;;;;;;;6286755;22;20061;-86
2022/01/10 07:41:11;;;;;;;51.28;29.17;;;;;;;;;;6276692;22;20030;-78
2022/01/10 07:43:37;;;;;;;50.70;30.00;;;;;;;;;;6279410;22;20003;-76
2022/01/10 07:46:04;;;;;;;52.53;30.27;;;;;;;;;;6281109;22;20011;-76
2022/01/10 07:48:31;;;;;;;59.65;32.95;;;;;;;;;;6280075;22;20008;-75
2022/01/10 07:50:57;;;;;;;61.78;36.47;;;;;;;;;;6281397;22;20006;-77
2022/01/10 07:53:24;;;;;;;60.35;34.08;;;;;;;;;;6281372;22;20007;-77
2022/01/10 07:55:50;;;;;;;53.22;30.85;;;;;;;;;;6279482;22;20446;-78
2022/01/10 07:58:17;;;;;;;53.13;31.45;;;;;;;;;;6278334;22;20006;-77
2022/01/10 08:00:43;;;;;;;55.13;33.65;;;;;;;;;;6278404;22;20011;-78
2022/01/10 08:03:12;;;;;;;62.67;37.25;;;;;;;;;;6275923;22;20003;-75
2022/01/10 08:05:38;;;;;;;53.38;31.73;;;;;;;;;;6278530;22;20113;-76
2022/01/10 08:08:04;;;;;;;47.33;29.20;;;;;;;;;;6277895;22;20003;-77
2022/01/10 08:10:30;;;;;;;44.13;28.63;;;;;;;;;;6277799;22;20004;-73
2022/01/10 08:12:56;;;;;;;47.17;30.58;;;;;;;;;;6278200;22;20429;-84
2022/01/10 08:15:22;;;;;;;45.97;30.00;;;;;;;;;;6282777;22;20011;-75
2022/01/10 08:17:55;;;;;;;40.90;26.52;;;;;;;;;;6285737;22;20003;-75
2022/01/10 08:20:21;;;;;;;38.58;26.67;;;;;;;;;;6277936;22;20011;-71
2022/01/10 08:22:47;;;;;;;40.40;25.83;;;;;;;;;;6278082;22;20030;-73
2022/01/10 08:25:14;;;;;;;36.63;23.88;;;;;;;;;;6281047;22;20003;-71
2022/01/10 08:27:40;;;;;;;38.47;25.38;;;;;;;;;;6277081;22;20034;-74
2022/01/10 08:30:06;;;;;;;35.58;22.55;;;;;;;;;;6282848;22;20049;-81
2022/01/10 08:32:33;;;;;;;35.45;23.77;;;;;;;;;;6281613;22;20055;-81
2022/01/10 08:35:00;;;;;;;37.03;24.67;;;;;;;;;;6282087;22;20068;-77
2022/01/10 08:37:27;;;;;;;37.95;26.67;;;;;;;;;;6287580;22;20299;-77
2022/01/10 08:39:58;;;;;;;36.72;23.83;;;;;;;;;;6288146;22;20003;-77
2022/01/10 08:42:26;;;;;;;35.78;24.88;;;;;;;;;;6287869;22;20021;-75
2022/01/10 08:44:53;;;;;;;38.53;25.13;;;;;;;;;;6285868;22;20007;-75
2022/01/10 08:47:20;;;;;;;44.50;26.38;;;;;;;;;;6287652;22;20004;-76
2022/01/10 08:49:46;;;;;;;36.55;22.50;;;;;;;;;;6279458;22;20020;-77
2022/01/10 08:52:13;;;;;;;32.00;21.30;;;;;;;;;;6283313;22;20380;-75
2022/01/10 08:54:39;;;;;;;32.10;21.80;;;;;;;;;;6282579;22;20030;-75
2022/01/10 08:57:05;;;;;;;29.17;20.23;;;;;;;;;;6277769;22;19995;-76
2022/01/10 08:59:32;;;;;;;28.80;21.58;;;;;;;;;;6279398;22;20026;-75
2022/01/10 09:02:02;;;;;;;27.38;18.98;;;;;;;;;;6285285;22;20049;-76
2022/01/10 09:04:30;;;;;;;25.55;18.95;;;;;;;;;;6285597;22;19995;-74
2022/01/10 09:06:58;;;;;;;28.65;20.02;;;;;;;;;;6282804;22;20004;-75
2022/01/10 09:09:24;;;;;;;31.10;21.63;;;;;;;;;;6279822;22;20010;-78
2022/01/10 09:11:51;;;;;;;28.67;20.27;;;;;;;;;;6278187;22;20079;-75
2022/01/10 09:14:17;;;;;;;29.30;20.48;;;;;;;;;;6279473;22;20015;-78
2022/01/10 09:16:46;;;;;;;28.40;20.17;;;;;;;;;;6286572;22;20007;-77
2022/01/10 09:19:12;;;;;;;29.92;20.00;;;;;;;;;;6282357;22;20071;-78
2022/01/10 09:21:38;;;;;;;26.63;20.08;;;;;;;;;;6278246;22;20002;-75
2022/01/10 09:24:06;;;;;;;29.60;21.70;;;;;;;;;;6278657;22;20441;-76
2022/01/10 09:26:33;;;;;;;30.85;21.20;;;;;;;;;;6279466;22;19996;-76
2022/01/10 09:28:59;;;;;;;30.40;21.00;;;;;;;;;;6277751;22;20007;-76
2022/01/10 09:31:26;;;;;;;34.13;21.75;;;;;;;;;;6278978;22;20023;-77
2022/01/10 09:33:54;;;;;;;30.08;20.30;;;;;;;;;;6285904;22;20448;-76
2022/01/10 09:36:21;;;;;;;30.63;21.65;;;;;;;;;;6281279;22;20045;-77
2022/01/10 09:38:47;;;;;;;35.35;24.95;;;;;;;;;;6280454;22;20000;-77
2022/01/10 09:41:13;;;;;;;31.52;21.90;;;;;;;;;;6280800;22;20779;-76
2022/01/10 09:43:41;;;;;;;36.20;24.63;;;;;;;;;;6281139;22;20014;-79
2022/01/10 09:46:08;;;;;;;32.35;21.70;;;;;;;;;;6282949;22;20000;-75
2022/01/10 09:48:34;;;;;;;32.72;21.38;;;;;;;;;;6284610;22;20007;-76
2022/01/10 09:51:00;;;;;;;32.70;20.70;;;;;;;;;;6284308;22;20433;-77
2022/01/10 09:53:26;;;;;;;35.10;23.25;;;;;;;;;;6282320;22;20664;-77
2022/01/10 09:55:52;;;;;;;34.22;23.20;;;;;;;;;;6277919;22;20000;-76
2022/01/10 09:58:18;;;;;;;102.32;50.50;;;;;;;;;;6277888;22;20004;-77
2022/01/10 10:00:46;;;;;;;43.42;26.30;;;;;;;;;;6278718;22;20003;-77
2022/01/10 10:03:12;;;;;;;46.67;30.42;;;;;;;;;;6278398;22;20084;-77
2022/01/10 10:05:39;;;;;;;33.47;22.80;;;;;;;;;;6279030;22;20055;-78
2022/01/10 10:08:05;;;;;;;33.67;23.13;;;;;;;;;;6278396;22;20000;-77
2022/01/10 10:10:35;;;;;;;32.38;21.65;;;;;;;;;;6281301;22;20012;-77
2022/01/10 10:13:01;;;;;;;33.92;23.80;;;;;;;;;;6279420;22;19995;-77
2022/01/10 10:15:31;;;;;;;36.83;23.77;;;;;;;;;;6279683;22;20016;-76
2022/01/10 10:17:57;;;;;;;38.05;24.48;;;;;;;;;;6279203;22;19996;-77
2022/01/10 10:20:25;;;;;;;33.90;23.00;;;;;;;;;;6278226;22;20004;-76
2022/01/10 10:22:54;;;;;;;34.42;24.08;;;;;;;;;;6278089;22;20003;-77
2022/01/10 10:25:20;;;;;;;40.40;24.80;;;;;;;;;;6278993;22;20491;-77
2022/01/10 10:27:48;;;;;;;38.60;26.00;;;;;;;;;;6279016;22;20081;-77
2022/01/10 10:30:23;;;;;;;35.40;24.33;;;;;;;;;;6279020;22;20016;-77
2022/01/10 10:32:50;;;;;;;36.22;24.45;;;;;;;;;;6278905;22;20000;-77
2022/01/10 10:35:17;;;;;;;38.38;25.40;;;;;;;;;;6278343;22;20004;-76
2022/01/10 10:37:44;;;;;;;38.33;26.38;;;;;;;;;;6278137;22;20333;-77
2022/01/10 10:40:13;;;;;;;38.45;25.50;;;;;;;;;;6277650;22;19996;-76
2022/01/10 10:42:46;;;;;;;40.67;25.92;;;;;;;;;;6277595;22;20007;-77
2022/01/10 10:45:13;;;;;;;38.10;24.52;;;;;;;;;;6276311;22;20012;-75
2022/01/10 10:47:43;;;;;;;36.97;25.30;;;;;;;;;;6277722;22;20010;-77
2022/01/10 10:50:10;;;;;;;49.30;32.17;;;;;;;;;;6282129;22;20008;-76
2022/01/10 10:52:37;;;;;;;37.15;25.40;;;;;;;;;;6279842;22;20429;-76
2022/01/10 10:55:08;;;;;;;42.35;25.63;;;;;;;;;;6279476;22;20014;-76
2022/01/10 10:57:35;;;;;;;37.97;25.42;;;;;;;;;;6278601;22;19995;-77
2022/01/10 11:00:04;;;;;;;39.50;24.55;;;;;;;;;;6278226;22;20373;-76
2022/01/10 11:02:30;;;;;;;38.33;24.55;;;;;;;;;;6282596;22;20030;-76
2022/01/10 11:04:56;;;;;;;38.22;26.05;;;;;;;;;;6284271;22;19980;-76
2022/01/10 11:07:27;;;;;;;40.63;26.77;;;;;;;;;;6287446;22;20003;-76
2022/01/10 11:09:54;;;;;;;37.42;25.42;;;;;;;;;;6287276;22;20099;-77
2022/01/10 11:12:24;;;;;;;43.50;27.25;;;;;;;;;;6284637;22;20013;-76
2022/01/10 11:14:54;;;;;;;38.65;27.17;;;;;;;;;;6279978;22;20098;-77
2022/01/10 11:17:23;;;;;;;39.55;25.27;;;;;;;;;;6284735;22;20028;-77
2022/01/10 11:20:10;;;;;;;38.70;25.48;;;;;;;;;;6286240;22;19999;-76
2022/01/10 11:22:42;;;;;;;46.90;30.02;;;;;;;;;;6282906;22;20030;-73
2022/01/10 11:25:27;;;;;;;48.13;30.58;;;;;;;;;;6281519;22;20467;-76
2022/01/10 11:27:54;;;;;;;40.22;25.80;;;;;;;;;;6282044;22;20393;-72
2022/01/10 11:30:23;;;;;;;42.70;25.60;;;;;;;;;;6291437;22;20011;-70
2022/01/10 11:32:57;;;;;;;38.83;26.10;;;;;;;;;;6288513;22;20000;-77
2022/01/10 11:35:26;;;;;;;42.85;26.95;;;;;;;;;;6283759;22;20032;-78
2022/01/10 11:37:52;;;;;;;39.40;26.23;;;;;;;;;;6283933;22;20035;-78
2022/01/10 11:40:19;;;;;;;38.97;25.27;;;;;;;;;;6281850;22;20057;-77
2022/01/10 11:43:03;;;;;;;42.90;28.08;;;;;;;;;;6281991;22;19999;-77
2022/01/10 11:45:29;;;;;;;41.67;28.00;;;;;;;;;;6280683;22;19999;-77
2022/01/10 11:48:11;;;;;;;44.65;26.38;;;;;;;;;;6284868;22;20418;-77
2022/01/10 11:50:40;;;;;;;38.35;24.88;;;;;;;;;;6276352;22;20337;-74
2022/01/10 11:53:08;;;;;;;41.75;27.67;;;;;;;;;;6279825;22;20026;-74
2022/01/10 11:55:45;;;;;;;43.97;28.25;;;;;;;;;;6281393;22;20501;-77
2022/01/10 11:58:18;;;;;;;44.55;30.00;;;;;;;;;;6280094;22;20004;-77
2022/01/10 12:00:52;;;;;;;45.03;27.08;;;;;;;;;;6283823;22;20016;-75
2022/01/10 12:03:22;;;;;;;45.95;28.45;;;;;;;;;;6284760;22;20027;-77
2022/01/10 12:05:48;;;;;;;42.97;27.48;;;;;;;;;;6282385;22;20420;-78
2022/01/10 12:08:15;;;;;;;44.42;28.75;;;;;;;;;;6277615;22;20008;-75
2022/01/10 12:10:44;;;;;;;43.85;27.33;;;;;;;;;;6288243;22;19991;-70
2022/01/10 12:13:11;;;;;;;43.78;26.92;;;;;;;;;;6288929;22;20004;-78
2022/01/10 12:15:38;;;;;;;53.08;35.42;;;;;;;;;;6311255;22;20015;-77
2022/01/10 12:18:07;;;;;;;45.03;28.45;;;;;;;;;;6308913;22;20003;-75
2022/01/10 12:20:38;;;;;;;50.75;32.05;;;;;;;;;;6320171;22;20118;-71
2022/01/10 12:23:06;;;;;;;47.97;28.17;;;;;;;;;;6325555;22;20061;-78
2022/01/10 12:25:36;;;;;;;44.55;27.40;;;;;;;;;;6283971;22;20023;-77
2022/01/10 12:28:08;;;;;;;51.15;32.45;;;;;;;;;;6251955;22;20105;-77
2022/01/10 12:30:48;;;;;;;57.08;34.22;;;;;;;;;;6287860;22;20012;-78
2022/01/10 12:33:35;;;;;;;53.00;32.47;;;;;;;;;;6261004;22;20008;-78
2022/01/10 12:36:02;;;;;;;47.13;30.83;;;;;;;;;;6277383;22;20509;-72
2022/01/10 12:38:29;;;;;;;59.88;39.13;;;;;;;;;;6276882;22;20318;-73
2022/01/10 12:40:55;;;;;;;48.63;29.67;;;;;;;;;;6251893;22;20007;-75
2022/01/10 12:43:21;;;;;;;48.28;31.42;;;;;;;;;;6277624;22;20053;-75
2022/01/10 12:45:50;;;;;;;52.85;33.15;;;;;;;;;;6278645;22;20066;-75
2022/01/10 12:48:16;;;;;;;50.97;31.98;;;;;;;;;;6253855;22;20450;-76
2022/01/10 12:50:45;;;;;;;50.05;28.95;;;;;;;;;;6250757;22;20065;-76
2022/01/10 12:53:11;;;;;;;52.45;31.98;;;;;;;;;;6250101;22;20000;-75
2022/01/10 12:55:40;;;;;;;49.45;30.13;;;;;;;;;;6281778;22;20007;-75
2022/01/10 12:58:06;;;;;;;56.85;31.55;;;;;;;;;;6249504;22;20015;-75
2022/01/10 13:00:32;;;;;;;58.00;34.40;;;;;;;;;;6255526;22;20008;-76
2022/01/10 13:03:03;;;;;;;49.92;31.73;;;;;;;;;;6218142;23;20405;-75
2022/01/10 13:05:29;;;;;;;40.67;23.60;;;;;;;;;;6251796;23;20011;-74
2022/01/10 13:07:55;;;;;;;46.30;25.75;;;;;;;;;;6260052;23;20006;-77
2022/01/10 13:10:26;;;;;;;45.22;26.30;;;;;;;;;;6250520;23;20237;-75
2022/01/10 13:12:54;;;;;;;45.13;27.08;;;;;;;;;;6223234;23;20011;-73
2022/01/10 13:15:21;;;;;;;66.30;37.67;;;;;;;;;;6257840;23;20004;-72
2022/01/10 13:17:56;;;;;;;55.85;33.05;;;;;;;;;;6254856;23;20004;-72
2022/01/10 13:20:23;;;;;;;55.28;33.15;;;;;;;;;;6254511;23;20024;-72
2022/01/10 13:22:51;;;;;;;53.03;31.90;;;;;;;;;;6255882;23;20003;-72
2022/01/10 13:25:18;;;;;;;40.05;24.17;;;;;;;;;;6259838;23;20411;-73
2022/01/10 13:27:52;;;;;;;39.40;24.65;;;;;;;;;;6232984;23;20028;-71
2022/01/10 13:30:25;;;;;;;42.97;27.48;;;;;;;;;;6228172;23;20073;-72
2022/01/10 13:33:04;;;;;;;50.45;29.05;;;;;;;;;;6229505;23;20016;-76
2022/01/10 13:35:32;;;;;;;47.47;28.85;;;;;;;;;;6251669;23;20438;-76
2022/01/10 13:37:58;;;;;;;43.90;27.60;;;;;;;;;;6203273;23;20012;-77
2022/01/10 13:40:41;;;;;;;55.00;28.77;;;;;;;;;;6252038;23;20075;-76
2022/01/10 13:43:09;;;;;;;45.85;26.92;;;;;;;;;;6228764;23;20000;-77
2022/01/10 13:45:50;;;;;;;46.63;28.15;;;;;;;;;;6247008;23;20008;-77
2022/01/10 13:48:21;;;;;;;50.95;28.17;;;;;;;;;;6220145;23;20004;-76
2022/01/10 13:50:57;;;;;;;49.72;29.65;;;;;;;;;;6258569;23;20028;-78
2022/01/10 13:53:29;;;;;;;49.38;27.92;;;;;;;;;;6255425;23;20004;-76
2022/01/10 13:56:13;;;;;;;47.95;28.35;;;;;;;;;;6254995;23;20028;-79
2022/01/10 13:58:43;;;;;;;;;;;;;;;;;;6227097;23;20016;-76
2022/01/10 14:01:13;;;;;;;44.67;25.98;;;;;;;;;;6227268;23;19907;-76
2022/01/10 14:03:42;;;;;;;50.72;28.73;;;;;;;;;;6252362;23;20028;-74
2022/01/10 14:06:10;;;;;;;49.22;28.58;;;;;;;;;;6227962;23;20004;-75
2022/01/10 14:09:11;;;;;;;53.88;31.70;;;;;;;;;;6230565;23;20011;-77
2022/01/10 14:11:39;;;;;;;56.72;33.50;;;;;;;;;;6235006;23;20060;-77
2022/01/10 14:14:11;;;;;;;51.13;30.10;;;;;;;;;;6230157;23;20000;-75
2022/01/10 14:16:47;;;;;;;50.80;30.75;;;;;;;;;;6237044;23;20035;-77
2022/01/10 14:19:17;;;;;;;47.30;29.10;;;;;;;;;;6239842;23;20004;-77
2022/01/10 14:21:43;;;;;;;46.42;27.75;;;;;;;;;;6265902;22;20008;-77
2022/01/10 14:24:09;;;;;;;41.15;24.88;;;;;;;;;;6266896;23;20000;-77
2022/01/10 14:26:40;;;;;;;44.90;27.35;;;;;;;;;;6270068;23;20030;-78
2022/01/10 14:29:08;;;;;;;40.78;25.83;;;;;;;;;;6270551;23;19996;-78
2022/01/10 14:31:46;;;;;;;42.80;27.02;;;;;;;;;;6268235;23;19988;-77
2022/01/10 14:34:29;;;;;;;45.20;27.85;;;;;;;;;;6268095;23;20040;-76